createdAt,value
2022-08-11T00:01:22.610Z,99092.09
2022-08-11T00:03:57.233Z,99091.97
2022-08-11T00:06:37.819Z,99080.03
2022-08-11T00:09:16.628Z,99061.94
2022-08-11T00:11:48.280Z,99062.50
2022-08-11T00:14:21.008Z,99058.56
2022-08-11T00:16:58.678Z,99051.91
2022-08-11T00:20:12.373Z,99050.66
2022-08-11T00:22:23.771Z,99037.22
2022-08-11T00:24:53.903Z,99030.13
2022-08-11T00:27:34.751Z,99035.38
2022-08-11T00:30:02.131Z,99029.50
2022-08-11T00:32:31.067Z,99018.31
2022-08-11T00:35:56.094Z,99011.44
2022-08-11T00:37:50.830Z,99013.59
2022-08-11T00:40:29.712Z,99004.22
2022-08-11T00:43:20.897Z,98998.88
2022-08-11T00:46:19.909Z,98987.53
2022-08-11T00:49:02.357Z,98981.44
2022-08-11T00:52:06.326Z,98970.25
2022-08-11T00:55:04.027Z,98954.97
2022-08-11T00:57:52.774Z,98951.78
2022-08-11T01:00:23.545Z,98944.72
2022-08-11T01:03:20.791Z,98929.16
2022-08-11T01:06:03.894Z,98927.63
2022-08-11T01:08:54.101Z,98924.25
2022-08-11T01:11:32.708Z,98917.66
2022-08-11T01:14:06.348Z,98912.97
2022-08-11T01:17:12.301Z,98903.19
2022-08-11T01:20:44.827Z,98902.81
2022-08-11T01:23:07.823Z,98900.44
2022-08-11T01:26:16.445Z,98888.69
2022-08-11T01:29:12.948Z,98895.00
2022-08-11T01:32:01.693Z,98881.66
2022-08-11T01:34:43.232Z,98869.91
2022-08-11T01:37:48.204Z,98863.31
2022-08-11T01:40:30.596Z,98867.59
2022-08-11T01:43:53.810Z,98868.41
2022-08-11T01:46:40.688Z,98862.09
2022-08-11T01:50:05.200Z,98870.88
2022-08-11T01:52:44.957Z,98868.44
2022-08-11T01:55:27.247Z,98871.66
2022-08-11T01:58:07.059Z,98878.75
2022-08-11T02:00:51.189Z,98879.59
2022-08-11T02:03:30.157Z,98870.13
2022-08-11T02:06:26.411Z,98861.09
2022-08-11T02:09:13.429Z,98866.16
2022-08-11T02:11:47.636Z,98865.38
2022-08-11T02:14:40.585Z,98860.66
2022-08-11T02:17:54.957Z,98857.06
2022-08-11T02:20:45.532Z,98866.91
2022-08-11T02:24:05.881Z,98858.97
2022-08-11T02:26:39.830Z,98859.66
2022-08-11T02:29:13.786Z,98850.16
2022-08-11T02:32:24.114Z,98843.06
2022-08-11T02:35:02.718Z,98843.44
2022-08-11T02:37:45.302Z,98847.72
2022-08-11T02:40:41.776Z,98856.41
2022-08-11T02:43:20.286Z,98853.22
2022-08-11T02:46:18.432Z,98843.44
2022-08-11T02:49:31.006Z,98844.16
2022-08-11T02:52:25.336Z,98827.19
2022-08-11T02:55:56.709Z,98817.75
2022-08-11T02:58:32.861Z,98803.16
2022-08-11T03:01:19.452Z,98789.41
2022-08-11T03:03:59.350Z,98792.16
2022-08-11T03:06:45.295Z,98793.75
2022-08-11T03:09:25.312Z,98792.53
2022-08-11T03:12:36.000Z,98795.34
2022-08-11T03:15:30.526Z,98803.53
2022-08-11T03:18:06.382Z,98800.84
2022-08-11T03:20:43.695Z,98803.91
2022-08-11T03:23:34.864Z,98787.41
2022-08-11T03:26:15.953Z,98777.91
2022-08-11T03:28:53.724Z,98773.19
2022-08-11T03:31:39.854Z,98768.84
2022-08-11T03:34:17.756Z,98760.97
2022-08-11T03:37:35.285Z,98762.50
2022-08-11T03:40:08.296Z,98729.47
2022-08-11T03:42:44.254Z,98708.19
2022-08-11T03:45:41.123Z,98705.06
2022-08-11T03:48:26.138Z,98712.03
2022-08-11T03:50:55.981Z,98713.03
2022-08-11T03:53:56.779Z,98702.53
2022-08-11T03:57:07.391Z,98697.75
2022-08-11T04:00:11.379Z,98687.16
2022-08-11T04:03:08.394Z,98678.91
2022-08-11T04:06:13.465Z,98685.09
2022-08-11T04:08:43.084Z,98684.31
2022-08-11T04:11:34.308Z,98675.66
2022-08-11T04:14:38.056Z,98652.19
2022-08-11T04:17:42.932Z,98650.63
2022-08-11T04:20:52.135Z,98644.66
2022-08-11T04:24:38.500Z,98625.81
2022-08-11T04:27:39.117Z,98626.22
2022-08-11T04:30:17.745Z,98614.91
2022-08-11T04:33:34.251Z,98618.59
2022-08-11T04:36:54.382Z,98634.22
2022-08-11T04:39:43.667Z,98628.00
2022-08-11T04:43:07.087Z,98625.69
2022-08-11T04:45:52.544Z,98626.56
2022-08-11T05:03:48.858Z,98638.22
2022-08-11T05:06:53.610Z,98651.63
2022-08-11T05:09:39.221Z,98662.34
2022-08-11T05:12:31.453Z,98667.88
2022-08-11T05:15:18.464Z,98674.97
2022-08-11T05:18:42.071Z,98675.78
2022-08-11T05:21:44.476Z,98671.91
2022-08-11T05:24:38.917Z,98682.97
2022-08-11T05:27:28.280Z,98707.75
2022-08-11T05:30:34.330Z,98714.91
2022-08-11T05:33:26.903Z,98728.66
2022-08-11T05:36:17.817Z,98758.56
2022-08-11T05:39:14.893Z,98759.38
2022-08-11T05:42:01.021Z,98771.19
2022-08-11T05:44:47.120Z,98790.53
2022-08-11T05:47:42.613Z,98805.91
2022-08-11T05:50:33.039Z,98825.53
2022-08-11T05:53:20.057Z,98817.72
2022-08-11T05:56:08.132Z,98843.78
2022-08-11T05:58:43.747Z,98854.06
2022-08-11T06:01:13.249Z,98863.75
2022-08-11T06:04:03.280Z,98864.94
2022-08-11T06:06:30.931Z,98872.19
2022-08-11T06:08:59.684Z,98889.59
2022-08-11T06:11:44.265Z,98902.06
2022-08-11T06:14:15.866Z,98901.47
2022-08-11T06:16:43.547Z,98921.94
2022-08-11T06:19:10.772Z,98956.53
2022-08-11T06:21:40.469Z,98959.00
2022-08-11T06:24:15.394Z,98973.25
2022-08-11T06:27:11.224Z,98989.72
2022-08-11T06:29:47.603Z,98989.84
2022-08-11T06:32:15.985Z,98999.41
2022-08-11T06:35:02.227Z,99004.78
2022-08-11T06:38:03.276Z,99004.53
2022-08-11T06:40:36.029Z,99020.84
2022-08-11T06:43:19.809Z,99045.56
2022-08-11T06:46:04.388Z,99040.94
2022-08-11T06:48:33.707Z,99044.69
2022-08-11T06:51:12.634Z,99080.91
2022-08-11T06:54:04.682Z,99109.25
2022-08-11T06:57:29.412Z,99116.50
2022-08-11T07:00:04.579Z,99137.09
2022-08-11T07:02:34.581Z,99175.66
2022-08-11T07:05:08.206Z,99187.59
2022-08-11T07:08:35.216Z,99198.75
2022-08-11T07:11:57.207Z,99218.41
2022-08-11T07:14:45.983Z,99230.28
2022-08-11T07:17:18.307Z,99230.44
2022-08-11T07:20:10.323Z,99235.31
2022-08-11T07:23:10.284Z,99243.72
2022-08-11T07:26:00.094Z,99281.66
2022-08-11T07:28:48.441Z,99305.81
2022-08-11T07:31:24.701Z,99324.47
2022-08-11T07:34:06.982Z,99341.13
2022-08-11T07:36:46.012Z,99391.75
2022-08-11T07:39:21.199Z,99397.31
2022-08-11T07:41:49.460Z,99412.03
2022-08-11T07:44:17.171Z,99443.72
2022-08-11T07:47:04.800Z,99452.44
2022-08-11T07:49:54.272Z,99463.59
2022-08-11T07:52:32.526Z,99466.78
2022-08-11T07:55:51.255Z,99481.88
2022-08-11T07:58:44.998Z,99477.56
2022-08-11T08:01:41.747Z,99485.91
2022-08-11T08:04:32.340Z,99499.41
2022-08-11T08:07:19.745Z,99493.13
2022-08-11T08:10:07.017Z,99490.81
2022-08-11T08:12:55.983Z,99492.03
2022-08-11T08:15:42.146Z,99499.63
2022-08-11T08:18:25.982Z,99509.53
2022-08-11T08:20:59.132Z,99517.06
2022-08-11T08:23:34.270Z,99544.75
2022-08-11T08:26:04.626Z,99536.88
2022-08-11T08:28:33.921Z,99548.75
2022-08-11T08:31:00.944Z,99559.06
2022-08-11T08:33:32.491Z,99546.44
2022-08-11T08:36:12.678Z,99547.28
2022-08-11T08:38:50.151Z,99558.44
2022-08-11T08:41:29.249Z,99568.31
2022-08-11T08:44:21.047Z,99573.44
2022-08-11T08:46:56.619Z,99575.09
2022-08-11T08:49:25.532Z,99571.94
2022-08-11T08:52:01.607Z,99567.22
2022-08-11T08:54:45.541Z,99588.66
2022-08-11T08:57:14.192Z,99595.00
2022-08-11T08:59:48.756Z,99614.84
2022-08-11T09:02:34.180Z,99612.91
2022-08-11T09:05:03.762Z,99609.34
2022-08-11T09:07:39.409Z,99625.22
2022-08-11T09:10:09.176Z,99629.97
2022-08-11T09:12:40.519Z,99618.91
2022-08-11T09:15:09.249Z,99625.25
2022-08-11T09:17:39.762Z,99631.63
2022-08-11T09:20:17.282Z,99637.19
2022-08-11T09:26:19.759Z,99643.56
2022-08-11T09:28:49.741Z,99642.38
2022-08-11T09:31:16.828Z,99640.41
2022-08-11T09:33:45.968Z,99657.03
2022-08-11T09:36:32.361Z,99657.06
2022-08-11T09:39:19.223Z,99673.28
2022-08-11T09:42:00.393Z,99663.72
2022-08-11T09:44:48.954Z,99671.28
2022-08-11T09:47:32.281Z,99663.31
2022-08-11T09:50:01.578Z,99659.44
2022-08-11T09:52:48.087Z,99659.03
2022-08-11T09:55:25.304Z,99661.41
2022-08-11T09:58:11.927Z,99653.09
2022-08-11T10:01:02.239Z,99663.41
2022-08-11T10:03:31.584Z,99669.75
2022-08-11T10:06:34.092Z,99662.63
2022-08-11T10:09:06.274Z,99672.16
2022-08-11T10:11:36.369Z,99661.03
2022-08-11T10:14:32.910Z,99685.63
2022-08-11T10:17:06.982Z,99682.06
2022-08-11T10:19:36.533Z,99673.72
2022-08-11T10:22:23.951Z,99667.34
2022-08-11T10:25:14.492Z,99674.47
2022-08-11T10:28:18.736Z,99672.88
2022-08-11T10:30:52.414Z,99684.81
2022-08-11T10:33:41.773Z,99683.22
2022-08-11T10:36:19.377Z,99675.25
2022-08-11T10:38:50.377Z,99672.81
2022-08-11T10:41:36.644Z,99671.19
2022-08-11T10:44:23.714Z,99672.84
2022-08-11T10:47:10.502Z,99682.38
2022-08-11T10:49:37.705Z,99682.03
2022-08-11T10:52:23.476Z,99684.00
2022-08-11T10:55:10.013Z,99678.41
2022-08-11T10:58:04.987Z,99681.19
2022-08-11T11:00:33.380Z,99682.38
2022-08-11T11:03:05.422Z,99684.78
2022-08-11T11:06:28.790Z,99690.31
2022-08-11T11:08:54.068Z,99687.53
2022-08-11T11:11:45.112Z,99677.63
2022-08-11T11:14:46.105Z,99675.63
2022-08-11T11:17:50.808Z,99680.00
2022-08-11T11:20:36.467Z,99675.22
2022-08-11T11:23:20.548Z,99682.38
2022-08-11T11:26:14.794Z,99683.97
2022-08-11T11:29:19.060Z,99687.16
2022-08-11T11:32:09.512Z,99677.63
2022-08-11T11:34:59.326Z,99676.03
2022-08-11T11:37:26.952Z,99673.19
2022-08-11T11:39:55.416Z,99683.50
2022-08-11T11:42:22.975Z,99681.13
2022-08-11T11:44:55.758Z,99673.16
2022-08-11T11:47:23.777Z,99687.81
2022-08-11T11:49:50.896Z,99677.47
2022-08-11T11:52:20.561Z,99672.66
2022-08-11T11:54:50.536Z,99677.41
2022-08-11T11:57:38.035Z,99672.63
2022-08-11T12:00:33.598Z,99681.31
2022-08-11T12:03:02.916Z,99672.94
2022-08-11T12:05:33.740Z,99673.31
2022-08-11T12:08:18.209Z,99669.72
2022-08-11T12:11:14.258Z,99673.72
2022-08-11T12:13:43.417Z,99670.91
2022-08-11T12:16:35.390Z,99654.91
2022-08-11T12:19:00.833Z,99667.63
2022-08-11T12:21:31.354Z,99678.47
2022-08-11T12:24:19.755Z,99678.88
2022-08-11T12:27:14.691Z,99673.31
2022-08-11T12:29:39.907Z,99672.88
2022-08-11T12:32:09.077Z,99680.44
2022-08-11T12:34:39.278Z,99676.06
2022-08-11T12:37:13.264Z,99683.56
2022-08-11T12:40:43.446Z,99681.97
2022-08-11T12:43:43.765Z,99677.19
2022-08-11T12:46:15.037Z,99678.75
2022-08-11T12:49:05.777Z,99680.69
2022-08-11T12:52:11.112Z,99681.03
2022-08-11T12:54:49.764Z,99677.72
2022-08-11T12:57:39.144Z,99682.06
2022-08-11T13:00:26.007Z,99691.97
2022-08-11T13:03:13.590Z,99686.72
2022-08-11T13:05:46.477Z,99692.69
2022-08-11T13:08:17.749Z,99683.91
2022-08-11T13:11:06.679Z,99679.91
2022-08-11T13:13:55.270Z,99694.22
2022-08-11T13:16:23.245Z,99691.44
2022-08-11T13:18:50.969Z,99701.28
2022-08-11T13:21:21.892Z,99698.09
2022-08-11T13:24:00.686Z,99707.28
2022-08-11T13:26:47.633Z,99702.53
2022-08-11T13:29:22.687Z,99695.34
2022-08-11T13:31:50.579Z,99699.69
2022-08-11T13:34:18.400Z,99700.50
2022-08-11T13:36:52.618Z,99698.91
2022-08-11T13:39:23.964Z,99704.50
2022-08-11T13:41:53.554Z,99701.69
2022-08-11T13:44:25.574Z,99698.91
2022-08-11T13:46:57.838Z,99696.06
2022-08-11T13:49:25.880Z,99700.41
2022-08-11T13:51:54.341Z,99703.47
2022-08-11T13:54:42.505Z,99708.22
2022-08-11T13:58:07.242Z,99703.31
2022-08-11T14:00:23.446Z,99694.06
2022-08-11T14:02:56.673Z,99709.56
2022-08-11T14:05:31.865Z,99692.31
2022-08-11T14:08:37.792Z,99695.47
2022-08-11T14:12:21.883Z,99675.75
2022-08-11T14:14:28.073Z,99680.75
2022-08-11T14:16:57.396Z,99696.84
2022-08-11T14:19:26.731Z,99696.06
2022-08-11T14:22:08.109Z,99696.84
2022-08-11T14:24:38.977Z,99692.13
2022-08-11T14:28:25.688Z,99687.25
2022-08-11T14:29:59.081Z,99682.34
2022-08-11T14:32:27.720Z,99678.16
2022-08-11T14:34:55.255Z,99666.16
2022-08-11T14:37:24.159Z,99678.84
2022-08-11T14:40:02.259Z,99668.34
2022-08-11T14:42:48.821Z,99672.06
2022-08-11T14:45:57.503Z,99671.38
2022-08-11T14:48:23.637Z,99671.94
2022-08-11T14:50:50.564Z,99678.22
2022-08-11T14:53:18.930Z,99669.25
2022-08-11T14:56:05.482Z,99673.84
2022-08-11T14:58:34.041Z,99676.38
2022-08-11T15:01:02.682Z,99671.53
2022-08-11T15:03:33.835Z,99671.69
2022-08-11T15:06:02.469Z,99673.63
2022-08-11T15:08:51.556Z,99673.44
2022-08-11T15:11:39.211Z,99674.94
2022-08-11T15:14:11.263Z,99669.69
2022-08-11T15:17:02.484Z,99672.44
2022-08-11T15:19:36.686Z,99667.31
2022-08-11T15:22:37.407Z,99659.91
2022-08-11T15:25:04.320Z,99657.50
2022-08-11T15:27:52.947Z,99654.00
2022-08-11T15:30:38.316Z,99653.69
2022-08-11T15:33:27.064Z,99659.91
2022-08-11T15:36:13.880Z,99654.66
2022-08-11T15:38:55.790Z,99669.53
2022-08-11T15:41:56.470Z,99652.00
2022-08-11T15:45:02.000Z,99660.25
2022-08-11T15:47:37.611Z,99658.09
2022-08-11T15:50:11.301Z,99658.31
2022-08-11T15:52:47.873Z,99655.50
2022-08-11T15:55:16.932Z,99658.78
2022-08-11T15:58:07.763Z,99658.81
2022-08-11T16:01:04.370Z,99659.69
2022-08-11T16:04:17.110Z,99655.22
2022-08-11T16:06:52.880Z,99655.91
2022-08-11T16:09:41.363Z,99652.47
2022-08-11T16:12:19.356Z,99645.16
2022-08-11T16:15:09.293Z,99634.59
2022-08-11T16:17:44.505Z,99650.84
2022-08-11T16:20:14.292Z,99642.63
2022-08-11T16:23:01.428Z,99641.63
2022-08-11T16:27:03.405Z,99645.78
2022-08-11T16:28:20.960Z,99638.81
2022-08-11T16:30:49.514Z,99632.69
2022-08-11T16:33:48.866Z,99636.44
2022-08-11T16:36:25.041Z,99634.00
2022-08-11T16:38:53.936Z,99628.69
2022-08-11T16:41:43.104Z,99636.00
2022-08-11T16:44:37.656Z,99624.81
2022-08-11T16:48:03.414Z,99635.94
2022-08-11T16:50:09.385Z,99634.06
2022-08-11T16:52:36.818Z,99627.09
2022-08-11T16:55:05.320Z,99619.72
2022-08-11T16:57:52.859Z,99624.97
2022-08-11T17:00:19.576Z,99616.47
2022-08-11T17:03:11.635Z,99621.47
2022-08-11T17:06:03.364Z,99617.16
2022-08-11T17:08:56.917Z,99615.50
2022-08-11T17:11:46.501Z,99612.56
2022-08-11T17:14:17.754Z,99613.91
2022-08-11T17:17:05.842Z,99608.31
2022-08-11T17:20:39.863Z,99613.91
2022-08-11T17:22:40.152Z,99605.94
2022-08-11T17:25:10.161Z,99596.13
2022-08-11T17:27:39.094Z,99614.09
2022-08-11T17:30:08.060Z,99608.06
2022-08-11T17:33:00.722Z,99608.19
2022-08-11T17:35:36.169Z,99615.16
2022-08-11T17:38:07.046Z,99615.41
2022-08-11T17:40:38.989Z,99606.78
2022-08-11T17:43:28.535Z,99615.66
2022-08-11T17:46:15.895Z,99610.63
2022-08-11T17:48:47.899Z,99611.84
2022-08-11T17:51:38.887Z,99616.84
2022-08-11T17:54:28.480Z,99620.22
2022-08-11T17:57:20.311Z,99614.28
2022-08-11T17:59:52.945Z,99614.38
2022-08-11T18:02:42.244Z,99622.56
2022-08-11T18:05:13.462Z,99618.00
2022-08-11T18:08:01.999Z,99620.47
2022-08-11T18:10:49.832Z,99616.63
2022-08-11T18:13:39.030Z,99618.78
2022-08-11T18:16:24.835Z,99620.50
2022-08-11T18:19:10.834Z,99614.84
2022-08-11T18:22:00.685Z,99617.38
2022-08-11T18:25:06.937Z,99606.88
2022-08-11T18:27:54.756Z,99610.94
2022-08-11T18:30:41.442Z,99614.28
2022-08-11T18:36:39.861Z,99610.09
2022-08-11T18:39:32.118Z,99605.44
2022-08-11T18:42:29.538Z,99601.16
2022-08-11T18:45:21.607Z,99594.06
2022-08-11T18:48:11.665Z,99582.25
2022-08-11T18:51:29.665Z,99588.66
2022-08-11T18:54:10.552Z,99582.38
2022-08-11T18:56:56.844Z,99577.66
2022-08-11T18:59:45.643Z,99582.44
2022-08-11T19:02:33.546Z,99578.09
2022-08-11T19:06:32.205Z,99580.09
2022-08-11T19:08:46.337Z,99572.97
2022-08-11T19:11:32.621Z,99565.78
2022-08-11T19:14:22.751Z,99568.56
2022-08-11T19:17:09.697Z,99562.56
2022-08-11T19:19:58.251Z,99563.31
2022-08-11T19:22:45.441Z,99559.75
2022-08-11T19:25:32.316Z,99567.28
2022-08-11T19:28:19.112Z,99577.59
2022-08-11T19:31:05.714Z,99577.97
2022-08-11T19:34:00.356Z,99575.56
2022-08-11T19:36:56.603Z,99575.88
2022-08-11T19:39:44.041Z,99584.56
2022-08-11T19:42:31.261Z,99573.44
2022-08-11T19:45:19.067Z,99573.41
2022-08-11T19:48:30.566Z,99578.13
2022-08-11T19:51:14.463Z,99571.28
2022-08-11T19:54:05.624Z,99563.72
2022-08-11T19:56:55.260Z,99560.13
2022-08-11T19:59:41.049Z,99556.50
2022-08-11T20:02:26.303Z,99562.00
2022-08-11T20:05:11.331Z,99566.72
2022-08-11T20:07:57.115Z,99557.94
2022-08-11T20:10:45.392Z,99568.22
2022-08-11T20:13:34.690Z,99559.47
2022-08-11T20:16:20.749Z,99560.94
2022-08-11T20:19:08.720Z,99571.97
2022-08-11T20:21:55.876Z,99564.81
2022-08-11T20:24:42.146Z,99554.44
2022-08-11T20:27:28.477Z,99560.63
2022-08-11T20:30:17.774Z,99557.44
2022-08-11T20:33:03.890Z,99550.19
2022-08-11T20:35:51.518Z,99551.72
2022-08-11T20:38:40.299Z,99545.75
2022-08-11T20:41:28.232Z,99555.66
2022-08-11T20:44:16.053Z,99567.09
2022-08-11T20:47:02.133Z,99567.38
2022-08-11T20:49:55.115Z,99570.47
2022-08-11T20:52:48.061Z,99562.91
2022-08-11T20:55:51.550Z,99549.47
2022-08-11T20:59:13.431Z,99526.13
2022-08-11T21:04:54.316Z,99558.16
2022-08-11T21:07:42.077Z,99567.81
2022-08-11T21:10:30.175Z,99551.31
2022-08-11T21:13:26.059Z,99550.81
2022-08-11T21:16:25.775Z,99542.47
2022-08-11T21:20:00.331Z,99522.09
2022-08-11T21:22:58.596Z,99509.06
2022-08-11T21:25:49.953Z,99492.63
2022-08-11T21:28:38.594Z,99500.38
2022-08-11T21:31:28.981Z,99493.47
2022-08-11T21:34:15.896Z,99471.00
2022-08-11T21:37:03.474Z,99452.66
2022-08-11T21:39:49.270Z,99441.09
2022-08-11T21:42:37.628Z,99463.16
2022-08-11T21:45:25.757Z,99470.28
2022-08-11T21:48:12.489Z,99484.84
2022-08-11T21:50:58.234Z,99496.84
2022-08-11T21:53:45.431Z,99518.81
2022-08-11T21:56:33.405Z,99517.63
2022-08-11T21:59:20.172Z,99532.78
2022-08-11T22:02:12.342Z,99540.34
2022-08-11T22:04:59.452Z,99533.44
2022-08-11T22:07:44.634Z,99530.06
2022-08-11T22:10:41.465Z,99517.56
2022-08-11T22:13:30.714Z,99516.91
2022-08-11T22:16:20.198Z,99523.81
2022-08-11T22:19:08.921Z,99522.22
2022-08-11T22:22:04.201Z,99517.22
2022-08-11T22:24:54.874Z,99492.38
2022-08-11T22:27:43.485Z,99503.47
2022-08-11T22:30:29.664Z,99483.75
2022-08-11T22:33:24.450Z,99487.44
2022-08-11T22:36:13.327Z,99467.09
2022-08-11T22:39:01.480Z,99463.66
2022-08-11T22:41:47.315Z,99473.56
2022-08-11T22:44:32.493Z,99470.16
2022-08-11T22:47:19.563Z,99488.22
2022-08-11T22:50:07.430Z,99504.50
2022-08-11T22:52:53.665Z,99514.38
2022-08-11T22:55:40.415Z,99489.81
2022-08-11T22:58:33.286Z,99486.78
2022-08-11T23:01:20.193Z,99453.19
2022-08-11T23:04:06.254Z,99458.84
2022-08-11T23:06:53.324Z,99448.13
2022-08-11T23:09:39.108Z,99446.06
2022-08-11T23:12:24.735Z,99443.19
2022-08-11T23:15:10.616Z,99452.31
2022-08-11T23:17:56.281Z,99455.34
2022-08-11T23:20:47.463Z,99449.56
2022-08-11T23:23:36.606Z,99474.78
2022-08-11T23:26:24.713Z,99471.94
2022-08-11T23:29:14.440Z,99486.25
2022-08-11T23:32:00.965Z,99490.53
2022-08-11T23:35:03.456Z,99492.56
2022-08-11T23:37:51.266Z,99489.16
2022-08-11T23:40:36.676Z,99482.75
2022-08-11T23:43:22.518Z,99486.84
2022-08-11T23:46:08.399Z,99462.78
2022-08-11T23:48:56.329Z,99461.19
2022-08-11T23:51:42.552Z,99455.50
2022-08-11T23:54:32.647Z,99450.88
2022-08-11T23:57:23.521Z,99458.50
